NCAR-RAP Real-Time Weather Data

Output produced by METARs form (08 May 2021  02:28 UTC)
found at http://weather.rap.ucar.edu/surface/
 
KTOR 080153Z AUTO 12018G28KT 10SM 20/08 A2973 RMK AO2 PK WND 12028/0141 SLP038 T02000078 $
KTOR 080053Z AUTO 12020G29KT 10SM CLR 22/08 A2975 RMK AO2 PK WND 14031/0019 SLP049 T02170078 $
KTOR 072353Z AUTO 14020G29KT 10SM FEW060 FEW110 23/08 A2979 RMK AO2 PK WND 14029/2348 SLP060 60000 T02280078 10250 20200 58016
KTOR 072253Z AUTO 13016KT 10SM CLR 23/06 A2979 RMK AO2 PK WND 12032/2210 RAB06E15 SLP060 P0000 T02280061
KTOR 072217Z AUTO 10018G32KT 10SM FEW038 SCT095 SCT110 23/08 A2980 RMK AO2 PK WND 12032/2210 RAB06E15 PRESFR P0000 T02280083
KTOR 072202Z AUTO 10011KT 10SM VCTS FEW055 SCT070 BKN110 22/08 A2985 RMK AO2 T02170083
KTOR 072153Z AUTO 14015G21KT 10SM FEW110 22/08 A2987 RMK AO2 PK WND 13026/2109 PRESRR SLP088 T02170083
KTOR 072053Z AUTO 11015G25KT 10SM CLR 25/07 A2984 RMK AO2 PK WND 11026/2030 SLP073 T02500072 57028
KTOR 071953Z AUTO 12013G20KT 10SM CLR 24/07 A2987 RMK AO2 SLP084 T02390067
KTOR 071853Z AUTO 13012G22KT 10SM CLR 23/07 A2991 RMK AO2 SLP098 T02280072
KTOR 071753Z AUTO 12009G18KT 10SM CLR 20/07 A2994 RMK AO2 SLP112 T02000067 10206 20050 56020
KTOR 071653Z AUTO 16005KT 10SM CLR 18/07 A2996 RMK AO2 SLP120 T01830067
KTOR 071553Z AUTO 10007KT 10SM CLR 15/06 A2997 RMK AO2 SLP127 T01500056
KTOR 071453Z AUTO 13003KT 10SM CLR 11/06 A3000 RMK AO2 SLP138 T01110056 58004
KTOR 071353Z AUTO 16003KT 10SM CLR 08/04 A3001 RMK AO2 SLP144 T00780044
KTOR 071253Z AUTO 00000KT 10SM CLR 05/03 A3002 RMK AO2 SLP144 T00500033